Time;durP1;ratioP1;P1;durP2;ratioP2;P2;SDS_P1;SDS_P2;PMS_P1;PMS_P2;Temp;Humidity;BMP_temperature;BMP_pressure;BME280_temperature;BME280_humidity;BME280_pressure;Samples;Min_cycle;Max_cycle;Signal;HPM_P1;HPM_P2
2023/03/30 00:31:42;;;;;;;19.00;12.80;;;4.60;71.90;;;;;;5657687;24;20324;-80
2023/03/30 00:56:59;;;;;;;21.27;12.57;;;4.60;73.70;;;;;;5689564;24;20184;-83
2023/03/30 01:37:25;;;;;;;18.23;11.67;;;4.50;75.60;;;;;;5416676;25;20523;-83
2023/03/30 03:32:42;;;;;;;18.93;11.17;;;4.50;79.50;;;;;;5976556;23;20181;-83
2023/03/30 03:53:33;;;;;;;19.43;12.17;;;4.60;79.80;;;;;;5811590;24;20697;-82
2023/03/30 05:08:47;;;;;;;18.17;12.57;;;5.30;80.40;;;;;;5680180;24;20874;-83
2023/03/30 05:28:52;;;;;;;19.53;12.47;;;5.60;80.20;;;;;;5551590;24;20685;-80
2023/03/30 05:54:30;;;;;;;23.17;12.70;;;5.90;80.00;;;;;;5619291;24;20188;-80
2023/03/30 06:35:14;;;;;;;23.27;14.17;;;6.30;80.10;;;;;;5756915;23;20288;-80
2023/03/30 07:04:59;;;;;;;19.40;14.00;;;7.50;78.90;;;;;;5584134;24;20536;-79
2023/03/30 07:25:34;;;;;;;19.83;12.93;;;8.00;78.60;;;;;;5696183;24;20368;-82
2023/03/30 07:41:11;;;;;;;19.93;13.10;;;8.00;79.20;;;;;;5750326;23;20233;-80
2023/03/30 08:26:38;;;;;;;20.97;13.40;;;9.50;77.80;;;;;;5760664;23;20361;-81
2023/03/30 08:47:03;;;;;;;19.27;13.77;;;9.50;77.80;;;;;;5571161;24;20241;-78
2023/03/30 09:32:31;;;;;;;23.17;13.33;;;9.20;80.10;;;;;;5408009;25;21218;-80
2023/03/30 09:57:54;;;;;;;19.17;13.33;;;10.30;78.50;;;;;;5585129;24;20754;-82
2023/03/30 11:18:57;;;;;;;14.83;10.43;;;13.20;76.80;;;;;;5644842;24;20224;-81
2023/03/30 11:59:24;;;;;;;13.73;10.57;;;13.50;76.70;;;;;;5530187;24;20589;-83
2023/03/30 12:19:53;;;;;;;15.97;10.57;;;13.60;75.90;;;;;;5666342;24;20190;-84
2023/03/30 12:40:21;;;;;;;12.83;9.17;;;14.30;74.90;;;;;;5691153;24;20290;-81
2023/03/30 12:44:42;;;;;;;11.90;8.13;;;14.70;74.20;;;;;;5546473;24;20603;-81
2023/03/30 13:10:01;;;;;;;12.00;9.17;;;14.10;74.50;;;;;;5428923;25;20573;-80
2023/03/30 13:45:31;;;;;;;12.90;9.60;;;12.90;77.10;;;;;;5711311;23;20648;-83
2023/03/30 14:11:16;;;;;;;12.60;9.27;;;13.70;76.90;;;;;;5711904;24;20187;-83
2023/03/30 14:41:43;;;;;;;9.40;5.80;;;13.50;78.70;;;;;;5767286;24;20290;-83
2023/03/30 15:07:06;;;;;;;7.33;5.87;;;12.80;79.20;;;;;;5614329;24;20252;-80
2023/03/30 15:36:56;;;;;;;10.37;7.10;;;11.70;86.80;;;;;;5574495;24;20619;-80
2023/03/30 15:57:47;;;;;;;7.80;6.83;;;11.40;88.70;;;;;;5608497;24;20267;-80
2023/03/30 16:22:47;;;;;;;9.80;8.47;;;11.10;90.20;;;;;;5637429;24;20554;-85
2023/03/30 17:28:27;;;;;;;15.70;11.30;;;10.20;91.00;;;;;;5730891;24;21087;-80
2023/03/30 17:54:19;;;;;;;15.37;11.80;;;9.70;91.80;;;;;;5699780;24;20522;-85
2023/03/30 18:24:24;;;;;;;15.33;11.73;;;10.40;92.00;;;;;;5709052;24;20453;-84
2023/03/30 19:05:16;;;;;;;20.87;14.67;;;9.50;99.90;;;;;;5658463;24;20493;-82
2023/03/30 19:40:53;;;;;;;17.73;14.20;;;9.50;99.90;;;;;;5787716;23;20392;-81
2023/03/30 20:05:57;;;;;;;21.40;16.03;;;9.30;99.90;;;;;;5733229;24;20262;-80
2023/03/30 20:36:38;;;;;;;27.57;19.17;;;8.90;99.90;;;;;;5700907;24;20767;-84
2023/03/30 21:35:52;;;;;;;27.97;20.80;;;9.40;99.90;;;;;;6031830;23;20178;-82
2023/03/30 22:05:48;;;;;;;32.43;21.93;;;9.40;99.90;;;;;;5672873;24;20218;-82
2023/03/30 22:31:45;;;;;;;29.63;19.97;;;9.70;99.90;;;;;;5795540;24;20628;-81
2023/03/30 23:07:05;;;;;;;20.87;16.57;;;10.20;99.90;;;;;;5526112;25;20190;-83
